createdAt,value
2022-12-01T00:00:21.388Z,102463.19
2022-12-01T00:01:23.251Z,102459.08
2022-12-01T00:02:25.168Z,102460.73
2022-12-01T00:03:28.100Z,102460.73
2022-12-01T00:04:29.913Z,102470.13
2022-12-01T00:05:31.761Z,102461.39
2022-12-01T00:06:33.541Z,102457.83
2022-12-01T00:07:35.431Z,102461.28
2022-12-01T00:08:37.275Z,102463.08
2022-12-01T00:09:39.086Z,102458.71
2022-12-01T00:10:41.026Z,102456.25
2022-12-01T00:11:42.817Z,102465.64
2022-12-01T00:12:44.639Z,102457.83
2022-12-01T00:13:46.436Z,102453.69
2022-12-01T00:14:48.224Z,102458.71
2022-12-01T00:15:50.086Z,102464.66
2022-12-01T00:16:52.030Z,102459.63
2022-12-01T00:17:53.884Z,102462.20
2022-12-01T00:18:55.704Z,102464.07
2022-12-01T00:19:57.514Z,102455.48
2022-12-01T00:20:59.493Z,102459.08
2022-12-01T00:22:01.308Z,102460.18
2022-12-01T00:23:03.119Z,102462.97
2022-12-01T00:24:04.910Z,102465.54
2022-12-01T00:25:06.710Z,102465.65
2022-12-01T00:26:09.051Z,102462.20
2022-12-01T00:27:10.864Z,102458.05
2022-12-01T00:28:12.673Z,102457.28
2022-12-01T00:29:14.470Z,102452.25
2022-12-01T00:30:16.377Z,102445.53
2022-12-01T00:31:18.266Z,102453.24
2022-12-01T00:32:20.047Z,102453.35
2022-12-01T00:33:21.837Z,102447.55
2022-12-01T00:34:23.640Z,102445.86
2022-12-01T00:35:25.437Z,102441.72
2022-12-01T00:36:27.193Z,102448.54
2022-12-01T00:37:28.981Z,102437.38
2022-12-01T00:38:30.669Z,102438.38
2022-12-01T00:39:32.466Z,102444.53
2022-12-01T00:40:34.375Z,102436.02
2022-12-01T00:41:36.224Z,102433.45
2022-12-01T00:42:38.049Z,102440.49
2022-12-01T00:43:39.913Z,102427.64
2022-12-01T00:44:41.753Z,102430.98
2022-12-01T00:45:43.609Z,102426.55
2022-12-01T00:46:45.430Z,102435.03
2022-12-01T00:47:47.408Z,102425.74
2022-12-01T00:48:49.198Z,102432.78
2022-12-01T00:49:51.182Z,102431.91
2022-12-01T00:50:53.092Z,102430.77
2022-12-01T00:51:54.943Z,102424.31
2022-12-01T00:52:56.718Z,102421.33
2022-12-01T00:53:58.552Z,102421.33
2022-12-01T00:55:00.450Z,102428.47
2022-12-01T00:56:02.230Z,102440.41
2022-12-01T00:57:04.081Z,102436.95
2022-12-01T00:58:05.924Z,102433.50
2022-12-01T00:59:07.738Z,102429.36
2022-12-01T01:00:09.969Z,102426.78
2022-12-01T01:01:11.841Z,102431.48
2022-12-01T01:02:13.824Z,102422.86
2022-12-01T01:03:15.634Z,102433.14
2022-12-01T01:04:17.453Z,102425.42
2022-12-01T01:05:19.270Z,102435.92
2022-12-01T01:06:21.073Z,102436.14
2022-12-01T01:07:22.954Z,102433.68
2022-12-01T01:08:24.729Z,102437.48
2022-12-01T01:09:26.539Z,102436.83
2022-12-01T01:10:28.447Z,102439.61
2022-12-01T01:11:30.242Z,102440.71
2022-12-01T01:12:32.113Z,102433.11
2022-12-01T01:13:33.892Z,102440.26
2022-12-01T01:14:35.707Z,102439.34
2022-12-01T01:15:37.503Z,102438.57
2022-12-01T01:16:39.322Z,102433.43
2022-12-01T01:17:41.136Z,102436.22
2022-12-01T01:18:43.035Z,102435.44
2022-12-01T01:19:44.855Z,102432.28
2022-12-01T01:20:46.759Z,102436.75
2022-12-01T01:21:48.538Z,102439.53
2022-12-01T01:22:50.410Z,102436.19
2022-12-01T01:23:52.212Z,102450.63
2022-12-01T01:24:53.981Z,102435.20
2022-12-01T01:25:55.786Z,102435.09
2022-12-01T01:26:57.575Z,102431.72
2022-12-01T01:27:59.412Z,102433.30
2022-12-01T01:29:01.228Z,102433.30
2022-12-01T01:30:03.045Z,102430.73
2022-12-01T01:31:04.898Z,102426.47
2022-12-01T01:32:06.646Z,102423.80
2022-12-01T01:33:08.511Z,102427.28
2022-12-01T01:34:10.374Z,102429.70
2022-12-01T01:35:12.179Z,102424.92
2022-12-01T01:36:14.289Z,102428.16
2022-12-01T01:37:16.085Z,102426.15
2022-12-01T01:38:17.929Z,102421.67
2022-12-01T01:39:19.737Z,102419.91
2022-12-01T01:40:21.556Z,102426.81
2022-12-01T01:41:23.376Z,102431.19
2022-12-01T01:42:25.194Z,102422.70
2022-12-01T01:43:27.041Z,102427.03
2022-12-01T01:44:28.858Z,102425.38
2022-12-01T01:45:30.664Z,102424.56
2022-12-01T01:46:32.512Z,102419.42
2022-12-01T01:47:34.262Z,102429.70
2022-12-01T01:48:36.104Z,102423.69
2022-12-01T01:49:38.039Z,102419.32
2022-12-01T01:50:39.859Z,102414.88
2022-12-01T01:51:41.672Z,102419.11
2022-12-01T01:52:43.475Z,102420.80
2022-12-01T01:53:45.321Z,102413.97
2022-12-01T01:54:47.130Z,102420.69
2022-12-01T01:55:48.932Z,102406.04
2022-12-01T01:56:50.936Z,102414.77
2022-12-01T01:57:52.743Z,102412.98
2022-12-01T01:58:54.580Z,102412.77
2022-12-01T01:59:56.387Z,102411.88
2022-12-01T02:00:58.329Z,102409.20
2022-12-01T02:02:00.133Z,102413.43
2022-12-01T02:03:01.921Z,102411.67
2022-12-01T02:04:04.147Z,102413.33
2022-12-01T02:05:06.021Z,102411.45
2022-12-01T02:06:08.741Z,102402.61
2022-12-01T02:07:10.548Z,102410.22
2022-12-01T02:08:12.417Z,102403.42
2022-12-01T02:09:14.301Z,102406.10
2022-12-01T02:10:16.092Z,102402.83
2022-12-01T02:11:17.895Z,102406.42
2022-12-01T02:12:19.704Z,102413.54
2022-12-01T02:13:21.514Z,102411.88
2022-12-01T02:14:23.353Z,102409.31
2022-12-01T02:15:25.166Z,102410.09
2022-12-01T02:16:27.015Z,102404.95
2022-12-01T02:17:28.779Z,102401.39
2022-12-01T02:18:30.602Z,102404.84
2022-12-01T02:19:32.437Z,102402.16
2022-12-01T02:20:34.312Z,102397.91
2022-12-01T02:21:36.128Z,102410.09
2022-12-01T02:22:37.951Z,102399.70
2022-12-01T02:23:39.741Z,102403.85
2022-12-01T02:24:41.582Z,102412.44
2022-12-01T02:25:43.392Z,102411.56
2022-12-01T02:26:45.194Z,102415.01
2022-12-01T02:27:47.006Z,102404.73
2022-12-01T02:28:48.913Z,102405.51
2022-12-01T02:29:50.951Z,102402.94
2022-12-01T02:30:52.993Z,102422.83
2022-12-01T02:31:54.805Z,102409.98
2022-12-01T02:32:56.603Z,102412.87
2022-12-01T02:33:58.418Z,102412.77
2022-12-01T02:35:00.268Z,102413.43
2022-12-01T02:36:02.124Z,102412.55
2022-12-01T02:37:03.940Z,102414.45
2022-12-01T02:38:05.745Z,102421.36
2022-12-01T02:39:07.548Z,102419.81
2022-12-01T02:40:09.714Z,102417.34
2022-12-01T02:41:11.549Z,102414.07
2022-12-01T02:42:13.360Z,102414.18
2022-12-01T02:43:15.177Z,102413.30
2022-12-01T02:44:16.963Z,102418.33
2022-12-01T02:45:18.799Z,102417.56
2022-12-01T02:46:20.662Z,102413.30
2022-12-01T02:47:22.614Z,102416.75
2022-12-01T02:48:24.404Z,102416.86
2022-12-01T02:49:26.211Z,102416.08
2022-12-01T02:50:28.049Z,102417.00
2022-12-01T02:51:29.928Z,102405.91
2022-12-01T02:52:31.722Z,102411.96
2022-12-01T02:53:33.522Z,102420.55
2022-12-01T02:54:35.331Z,102413.83
2022-12-01T02:55:37.194Z,102411.36
2022-12-01T02:56:39.003Z,102410.59
2022-12-01T02:57:40.794Z,102415.84
2022-12-01T02:58:42.603Z,102417.63
2022-12-01T02:59:44.399Z,102418.41
2022-12-01T03:00:46.274Z,102415.84
2022-12-01T03:01:48.117Z,102412.28
2022-12-01T03:02:49.960Z,102411.27
2022-12-01T03:03:51.799Z,102408.47
2022-12-01T03:04:53.603Z,102405.69
2022-12-01T03:05:55.459Z,102418.55
2022-12-01T03:06:57.301Z,102420.34
2022-12-01T03:07:59.156Z,102421.44
2022-12-01T03:09:00.982Z,102411.96
2022-12-01T03:10:02.801Z,102416.30
2022-12-01T03:11:04.644Z,102425.80
2022-12-01T03:12:06.445Z,102417.20
2022-12-01T03:13:08.244Z,102420.55
2022-12-01T03:14:10.059Z,102417.20
2022-12-01T03:15:11.868Z,102411.16
2022-12-01T03:16:14.045Z,102408.47
2022-12-01T03:17:15.821Z,102407.70
2022-12-01T03:18:17.628Z,102412.17
2022-12-01T03:19:19.432Z,102411.47
2022-12-01T03:20:21.237Z,102409.70
2022-12-01T03:21:23.077Z,102407.80
2022-12-01T03:22:24.952Z,102408.58
2022-12-01T03:23:26.853Z,102405.91
2022-12-01T03:24:28.663Z,102405.80
2022-12-01T03:25:30.456Z,102402.24
2022-12-01T03:26:32.322Z,102401.33
2022-12-01T03:27:34.136Z,102399.67
2022-12-01T03:28:35.936Z,102405.02
2022-12-01T03:29:37.742Z,102399.98
2022-12-01T03:30:39.558Z,102406.12
2022-12-01T03:31:41.483Z,102404.56
2022-12-01T03:32:43.358Z,102404.78
2022-12-01T03:33:45.155Z,102403.09
2022-12-01T03:34:46.956Z,102404.88
2022-12-01T03:35:48.773Z,102405.77
2022-12-01T03:36:50.630Z,102399.04
2022-12-01T03:37:52.704Z,102399.95
2022-12-01T03:38:54.510Z,102410.13
2022-12-01T03:40:00.346Z,102405.87
2022-12-01T03:40:59.935Z,102399.04
2022-12-01T03:42:01.774Z,102407.45
2022-12-01T03:43:03.583Z,102403.76
2022-12-01T03:44:05.377Z,102399.98
2022-12-01T03:45:07.189Z,102399.11
2022-12-01T03:46:09.477Z,102402.56
2022-12-01T03:47:11.266Z,102398.30
2022-12-01T03:48:13.070Z,102400.77
2022-12-01T03:49:14.873Z,102398.20
2022-12-01T03:50:16.769Z,102407.70
2022-12-01T03:51:18.575Z,102401.67
2022-12-01T03:52:20.435Z,102401.58
2022-12-01T03:53:22.321Z,102399.88
2022-12-01T03:54:24.109Z,102403.34
2022-12-01T03:55:25.912Z,102406.92
2022-12-01T03:56:27.720Z,102403.44
2022-12-01T03:57:29.577Z,102402.87
2022-12-01T03:58:31.389Z,102408.91
2022-12-01T03:59:33.205Z,102407.91
2022-12-01T04:00:34.990Z,102407.70
2022-12-01T04:01:36.861Z,102404.36
2022-12-01T04:02:38.894Z,102399.00
2022-12-01T04:03:40.745Z,102407.59
2022-12-01T04:04:42.556Z,102405.80
2022-12-01T04:05:44.340Z,102400.77
2022-12-01T04:06:46.264Z,102405.02
2022-12-01T04:07:48.163Z,102399.88
2022-12-01T04:08:49.984Z,102414.64
2022-12-01T04:09:52.004Z,102406.71
2022-12-01T04:10:53.920Z,102412.63
2022-12-01T04:11:55.728Z,102415.87
2022-12-01T04:12:57.591Z,102408.93
2022-12-01T04:13:59.440Z,102404.60
2022-12-01T04:15:01.225Z,102406.15
2022-12-01T04:16:03.095Z,102407.06
2022-12-01T04:17:04.914Z,102409.84
2022-12-01T04:18:06.783Z,102412.42
2022-12-01T04:19:08.594Z,102412.42
2022-12-01T04:20:10.406Z,102420.23
2022-12-01T04:21:12.282Z,102418.33
2022-12-01T04:22:14.092Z,102418.89
2022-12-01T04:23:15.907Z,102410.86
2022-12-01T04:24:17.788Z,102419.38
2022-12-01T04:25:19.594Z,102414.23
2022-12-01T04:26:21.381Z,102417.69
2022-12-01T04:27:23.198Z,102420.37
2022-12-01T04:28:25.022Z,102408.40
2022-12-01T04:29:26.816Z,102416.32
2022-12-01T04:30:28.720Z,102406.95
2022-12-01T04:31:30.603Z,102410.41
2022-12-01T04:32:32.553Z,102413.08
2022-12-01T04:33:34.427Z,102418.33
2022-12-01T04:34:36.217Z,102409.84
2022-12-01T04:35:38.010Z,102401.11
2022-12-01T04:36:39.791Z,102407.17
2022-12-01T04:37:41.583Z,102412.31
2022-12-01T04:38:43.329Z,102407.06
2022-12-01T04:39:45.504Z,102418.22
2022-12-01T04:40:47.402Z,102407.06
2022-12-01T04:41:49.196Z,102403.79
2022-12-01T04:42:51.011Z,102400.34
2022-12-01T04:43:52.874Z,102408.16
2022-12-01T04:44:54.685Z,102409.14
2022-12-01T04:45:56.502Z,102400.55
2022-12-01T04:46:58.458Z,102397.10
2022-12-01T04:48:00.236Z,102402.24
2022-12-01T04:49:02.105Z,102404.14
2022-12-01T04:50:04.001Z,102404.25
2022-12-01T04:51:05.796Z,102404.36
2022-12-01T04:52:07.597Z,102413.05
2022-12-01T04:53:09.404Z,102410.59
2022-12-01T04:54:11.261Z,102408.02
2022-12-01T04:55:13.204Z,102409.50
2022-12-01T04:56:15.296Z,102411.16
2022-12-01T04:57:17.088Z,102422.35
2022-12-01T04:58:18.875Z,102417.98
2022-12-01T04:59:20.725Z,102422.24
2022-12-01T05:00:22.535Z,102423.02
2022-12-01T05:01:24.448Z,102424.81
2022-12-01T05:02:26.289Z,102425.59
2022-12-01T05:03:28.132Z,102425.59
2022-12-01T05:04:29.976Z,102411.86
2022-12-01T05:05:31.781Z,102423.90
2022-12-01T05:06:33.750Z,102423.23
2022-12-01T05:07:35.623Z,102418.30
2022-12-01T05:08:37.366Z,102419.19
2022-12-01T05:09:39.217Z,102424.43
2022-12-01T05:10:41.101Z,102421.86
2022-12-01T05:11:42.921Z,102425.34
2022-12-01T05:12:44.692Z,102424.53
2022-12-01T05:13:46.492Z,102419.39
2022-12-01T05:14:48.342Z,102426.33
2022-12-01T05:15:50.202Z,102420.20
2022-12-01T05:16:51.954Z,102421.97
2022-12-01T05:17:53.722Z,102416.05
2022-12-01T05:18:55.540Z,102416.61
2022-12-01T05:19:57.368Z,102415.73
2022-12-01T05:20:59.181Z,102421.75
2022-12-01T05:22:01.130Z,102412.28
2022-12-01T05:23:05.813Z,102420.77
2022-12-01T05:24:06.567Z,102419.67
2022-12-01T05:25:08.367Z,102419.67
2022-12-01T05:26:10.505Z,102422.14
2022-12-01T05:27:12.299Z,102423.02
2022-12-01T05:28:14.082Z,102430.73
2022-12-01T05:29:15.906Z,102430.73
2022-12-01T05:30:17.763Z,102424.56
2022-12-01T05:31:19.609Z,102427.14
2022-12-01T05:32:21.376Z,102424.46
2022-12-01T05:33:23.271Z,102420.23
2022-12-01T05:34:25.093Z,102417.77
2022-12-01T05:35:26.951Z,102418.65
2022-12-01T05:36:28.873Z,102425.59
2022-12-01T05:37:30.695Z,102418.65
2022-12-01T05:38:32.489Z,102422.91
2022-12-01T05:39:34.305Z,102421.89
2022-12-01T05:40:36.136Z,102421.01
2022-12-01T05:41:38.014Z,102431.40
2022-12-01T05:42:39.825Z,102423.69
2022-12-01T05:43:41.688Z,102423.69
2022-12-01T05:44:43.491Z,102429.59
2022-12-01T05:45:45.366Z,102428.05
2022-12-01T05:46:47.252Z,102439.11
2022-12-01T05:47:49.057Z,102435.66
2022-12-01T05:48:50.866Z,102429.39
2022-12-01T05:49:52.639Z,102431.95
2022-12-01T05:50:54.509Z,102435.55
2022-12-01T05:51:56.339Z,102432.88
2022-12-01T05:52:58.137Z,102436.33
2022-12-01T05:53:59.940Z,102441.67
2022-12-01T05:55:01.756Z,102425.27
2022-12-01T05:56:03.610Z,102433.65
2022-12-01T05:57:05.516Z,102427.52
2022-12-01T05:58:07.306Z,102434.31
2022-12-01T05:59:09.538Z,102424.84
2022-12-01T06:00:11.438Z,102425.72
2022-12-01T06:01:13.297Z,102433.22
2022-12-01T06:02:15.147Z,102420.92
2022-12-01T06:03:16.924Z,102427.75
2022-12-01T06:04:18.760Z,102429.44
2022-12-01T06:05:20.553Z,102425.18
2022-12-01T06:06:22.543Z,102425.95
2022-12-01T06:07:24.392Z,102425.95
2022-12-01T06:08:26.196Z,102429.66
2022-12-01T06:09:28.006Z,102423.60
2022-12-01T06:10:29.896Z,102421.14
2022-12-01T06:11:31.748Z,102420.37
2022-12-01T06:12:33.601Z,102422.16
2022-12-01T06:13:35.405Z,102423.15
2022-12-01T06:14:37.108Z,102421.46
2022-12-01T06:15:38.919Z,102418.78
2022-12-01T06:16:40.931Z,102417.02
2022-12-01T06:17:42.784Z,102423.81
2022-12-01T06:18:44.582Z,102417.13
2022-12-01T06:19:46.526Z,102415.33
2022-12-01T06:20:48.541Z,102417.13
2022-12-01T06:21:50.386Z,102416.53
2022-12-01T06:22:52.194Z,102417.77
2022-12-01T06:23:54.036Z,102419.56
2022-12-01T06:24:55.851Z,102423.02
2022-12-01T06:25:57.684Z,102418.76
2022-12-01T06:26:59.526Z,102420.66
2022-12-01T06:28:01.360Z,102411.96
2022-12-01T06:29:03.353Z,102424.11
2022-12-01T06:30:05.334Z,102424.00
2022-12-01T06:31:07.131Z,102432.53
2022-12-01T06:32:09.149Z,102431.40
2022-12-01T06:33:10.986Z,102424.36
2022-12-01T06:34:12.774Z,102429.39
2022-12-01T06:35:14.593Z,102430.30
2022-12-01T06:36:16.525Z,102432.98
2022-12-01T06:37:18.387Z,102428.83
2022-12-01T06:38:20.180Z,102426.36
2022-12-01T06:39:21.993Z,102425.59
2022-12-01T06:40:23.910Z,102409.28
2022-12-01T06:41:25.720Z,102422.35
2022-12-01T06:42:27.586Z,102427.70
2022-12-01T06:43:29.770Z,102424.11
2022-12-01T06:44:31.581Z,102416.50
2022-12-01T06:45:33.433Z,102415.06
2022-12-01T06:46:35.458Z,102429.89
2022-12-01T06:47:37.864Z,102418.06
2022-12-01T06:48:39.673Z,102418.06
2022-12-01T06:49:41.471Z,102420.52
2022-12-01T06:50:43.363Z,102409.32
2022-12-01T06:51:45.172Z,102409.11
2022-12-01T06:52:47.026Z,102417.53
2022-12-01T06:53:48.847Z,102415.95
2022-12-01T06:54:50.657Z,102410.59
2022-12-01T06:55:52.665Z,102410.70
2022-12-01T06:56:54.693Z,102408.80
2022-12-01T06:57:56.817Z,102415.73
2022-12-01T06:58:59.005Z,102401.30
2022-12-01T07:00:01.214Z,102408.44
2022-12-01T07:01:03.203Z,102422.28
2022-12-01T07:02:05.067Z,102406.75
2022-12-01T07:03:06.912Z,102406.75
2022-12-01T07:04:08.736Z,102405.98
2022-12-01T07:05:10.520Z,102406.86
2022-12-01T07:06:12.435Z,102414.67
2022-12-01T07:07:14.229Z,102406.19
2022-12-01T07:08:16.157Z,102413.80
2022-12-01T07:09:17.983Z,102415.48
2022-12-01T07:10:19.778Z,102412.00
2022-12-01T07:11:21.584Z,102403.52
2022-12-01T07:12:23.395Z,102413.13
2022-12-01T07:13:30.100Z,102414.00
2022-12-01T07:14:29.020Z,102405.30
2022-12-01T07:15:30.822Z,102410.55
2022-12-01T07:16:32.773Z,102404.50
2022-12-01T07:17:34.546Z,102404.39
2022-12-01T07:18:36.418Z,102409.43
2022-12-01T07:19:38.223Z,102402.84
2022-12-01T07:20:40.023Z,102406.30
2022-12-01T07:21:41.847Z,102409.08
2022-12-01T07:22:43.658Z,102404.06
2022-12-01T07:23:45.502Z,102416.15
2022-12-01T07:24:47.322Z,102404.17
2022-12-01T07:25:49.114Z,102406.85
2022-12-01T07:26:50.924Z,102406.85
2022-12-01T07:27:52.739Z,102397.48
2022-12-01T07:28:54.588Z,102402.52
2022-12-01T07:29:56.432Z,102408.33
2022-12-01T07:30:58.372Z,102398.78
2022-12-01T07:32:00.168Z,102398.78
2022-12-01T07:33:01.971Z,102401.50
2022-12-01T07:34:03.802Z,102401.70
2022-12-01T07:35:05.603Z,102405.09
2022-12-01T07:36:07.720Z,102405.30
2022-12-01T07:37:09.523Z,102407.97
2022-12-01T07:38:11.323Z,102402.83
2022-12-01T07:39:13.181Z,102404.70
2022-12-01T07:40:15.141Z,102396.98
2022-12-01T07:41:16.901Z,102406.39
2022-12-01T07:42:18.691Z,102396.09
2022-12-01T07:43:20.514Z,102409.84
2022-12-01T07:44:22.396Z,102407.47
2022-12-01T07:45:24.303Z,102398.88
2022-12-01T07:46:26.197Z,102398.88
2022-12-01T07:47:28.031Z,102410.75
2022-12-01T07:48:29.859Z,102404.80
2022-12-01T07:49:31.711Z,102403.25
2022-12-01T07:50:33.642Z,102397.19
2022-12-01T07:51:36.980Z,102399.97
2022-12-01T07:52:38.797Z,102390.70
2022-12-01T07:53:40.627Z,102384.53
2022-12-01T07:54:42.506Z,102396.62
2022-12-01T07:55:44.315Z,102395.73
2022-12-01T07:56:46.217Z,102386.23
2022-12-01T07:57:48.040Z,102403.35
2022-12-01T07:58:49.852Z,102385.55
2022-12-01T07:59:51.856Z,102383.09
2022-12-01T08:00:53.949Z,102383.09
2022-12-01T08:01:55.853Z,102383.19
2022-12-01T08:02:57.707Z,102376.35
2022-12-01T08:03:59.490Z,102381.70
2022-12-01T08:05:01.340Z,102380.14
2022-12-01T08:06:03.160Z,102389.83
2022-12-01T08:07:04.969Z,102384.01
2022-12-01T08:08:07.309Z,102381.64
2022-12-01T08:09:09.245Z,102379.37
2022-12-01T08:10:11.304Z,102378.70
2022-12-01T08:11:13.129Z,102372.97
2022-12-01T08:12:14.925Z,102377.41
2022-12-01T08:13:17.553Z,102385.13
2022-12-01T08:14:19.548Z,102388.41
2022-12-01T08:15:22.499Z,102384.92
2022-12-01T08:16:24.412Z,102371.17
2022-12-01T08:17:26.231Z,102382.55
2022-12-01T08:18:28.035Z,102388.41
2022-12-01T08:19:29.856Z,102378.02
2022-12-01T08:20:31.787Z,102384.82
2022-12-01T08:21:33.605Z,102376.22
2022-12-01T08:22:35.408Z,102372.16
2022-12-01T08:23:37.227Z,102389.39
2022-12-01T08:24:39.041Z,102380.08
2022-12-01T08:25:40.895Z,102379.09
2022-12-01T08:26:42.802Z,102375.75
2022-12-01T08:27:44.630Z,102380.18
2022-12-01T08:28:46.440Z,102372.45
2022-12-01T08:29:48.533Z,102368.33
2022-12-01T08:30:50.877Z,102367.61
2022-12-01T08:31:52.715Z,102371.20
2022-12-01T08:32:54.527Z,102356.53
2022-12-01T08:33:56.318Z,102371.41
2022-12-01T08:34:58.121Z,102366.05
2022-12-01T08:35:59.959Z,102369.31
2022-12-01T08:37:01.756Z,102368.33
2022-12-01T08:38:03.562Z,102357.02
2022-12-01T08:39:05.395Z,102355.16
2022-12-01T08:40:07.517Z,102350.02
2022-12-01T08:41:09.372Z,102355.26
2022-12-01T08:42:11.198Z,102343.38
2022-12-01T08:43:23.115Z,102349.59
2022-12-01T08:44:16.710Z,102350.51
2022-12-01T08:45:18.526Z,102345.94
2022-12-01T08:46:20.380Z,102349.50
2022-12-01T08:47:22.267Z,102344.45
2022-12-01T08:48:24.102Z,102342.89
2022-12-01T08:49:25.888Z,102338.72
2022-12-01T08:50:27.706Z,102334.75
2022-12-01T08:51:29.543Z,102337.45
2022-12-01T08:52:31.368Z,102337.45
2022-12-01T08:53:33.164Z,102338.44
2022-12-01T08:54:34.974Z,102335.27
2022-12-01T08:55:36.764Z,102347.14
2022-12-01T08:56:38.799Z,102334.27
2022-12-01T08:57:40.625Z,102348.05
2022-12-01T08:58:42.446Z,102334.36
2022-12-01T08:59:44.262Z,102335.27
2022-12-01T09:00:46.215Z,102330.91
2022-12-01T09:01:48.162Z,102330.22
2022-12-01T09:02:51.108Z,102341.50
2022-12-01T09:03:52.891Z,102325.47
2022-12-01T09:04:54.675Z,102333.09
2022-12-01T09:05:56.465Z,102325.27
2022-12-01T09:06:58.418Z,102336.55
2022-12-01T09:08:00.396Z,102334.66
2022-12-01T09:09:02.238Z,102326.16
2022-12-01T09:10:04.027Z,102323.67
2022-12-01T09:11:05.812Z,102327.84
2022-12-01T09:12:07.686Z,102336.64
2022-12-01T09:13:09.512Z,102316.83
2022-12-01T09:14:11.325Z,102321.30
2022-12-01T09:15:13.141Z,102311.09
2022-12-01T09:16:14.972Z,102311.97
2022-12-01T09:17:16.768Z,102311.00
2022-12-01T09:18:18.640Z,102309.40
2022-12-01T09:19:24.535Z,102327.42
2022-12-01T09:20:24.083Z,102314.74
2022-12-01T09:21:25.898Z,102312.39
2022-12-01T09:22:27.775Z,102311.58
2022-12-01T09:23:29.607Z,102307.44
2022-12-01T09:24:31.404Z,102310.89
2022-12-01T09:25:33.218Z,102306.62
2022-12-01T09:26:35.162Z,102305.05
2022-12-01T09:27:36.999Z,102303.55
2022-12-01T09:28:38.780Z,102314.05
2022-12-01T09:29:40.591Z,102296.20
2022-12-01T09:30:42.394Z,102318.51
2022-12-01T09:31:44.270Z,102309.08
2022-12-01T09:32:46.131Z,102325.42
2022-12-01T09:33:47.970Z,102316.03
2022-12-01T09:34:49.772Z,102320.08
2022-12-01T09:35:51.562Z,102315.64
2022-12-01T09:36:53.407Z,102310.49
2022-12-01T09:37:55.702Z,102306.03
2022-12-01T09:38:57.508Z,102301.86
2022-12-01T09:39:59.329Z,102306.31
2022-12-01T09:41:01.228Z,102311.37
2022-12-01T09:42:08.402Z,102310.49
2022-12-01T09:43:06.693Z,102309.39
2022-12-01T09:44:08.524Z,102300.78
2022-12-01T09:45:10.327Z,102310.30
2022-12-01T09:46:12.143Z,102293.25
2022-12-01T09:47:13.939Z,102295.83
2022-12-01T09:48:15.754Z,102296.02
2022-12-01T09:49:17.649Z,102297.71
2022-12-01T09:50:19.469Z,102298.59
2022-12-01T09:51:21.264Z,102296.11
2022-12-01T09:52:23.089Z,102301.36
2022-12-01T09:53:24.911Z,102297.09
2022-12-01T09:54:26.739Z,102309.28
2022-12-01T09:55:28.548Z,102295.61
2022-12-01T09:56:30.332Z,102297.78
2022-12-01T09:57:32.136Z,102299.45
2022-12-01T09:58:33.974Z,102296.97
2022-12-01T09:59:35.788Z,102299.63
2022-12-01T10:00:37.992Z,102315.00
2022-12-01T10:01:39.894Z,102290.14
2022-12-01T10:02:41.748Z,102302.02
2022-12-01T10:03:43.592Z,102298.47
2022-12-01T10:04:45.461Z,102295.98
2022-12-01T10:06:24.649Z,102289.05
2022-12-01T10:06:50.892Z,102299.54
2022-12-01T10:07:52.935Z,102290.14
2022-12-01T10:08:54.806Z,102296.09
2022-12-01T10:09:56.631Z,102299.54
2022-12-01T10:10:58.554Z,102298.66
2022-12-01T10:12:00.363Z,102284.80
2022-12-01T10:13:02.164Z,102300.36
2022-12-01T10:14:04.139Z,102286.56
2022-12-01T10:15:05.964Z,102285.69
2022-12-01T10:16:07.889Z,102283.02
2022-12-01T10:17:09.686Z,102285.78
2022-12-01T10:18:11.482Z,102284.08
2022-12-01T10:19:13.355Z,102271.30
2022-12-01T10:20:15.235Z,102276.63
2022-12-01T10:21:17.021Z,102268.91
2022-12-01T10:22:18.847Z,102276.45
2022-12-01T10:23:20.689Z,102266.14
2022-12-01T10:24:22.524Z,102265.36
2022-12-01T10:25:24.328Z,102265.55
2022-12-01T10:26:26.120Z,102264.03
2022-12-01T10:27:27.937Z,102265.83
2022-12-01T10:28:29.727Z,102262.46
2022-12-01T10:29:31.603Z,102268.31
2022-12-01T10:30:33.404Z,102268.49
2022-12-01T10:31:35.240Z,102256.48
2022-12-01T10:32:37.042Z,102262.46
2022-12-01T10:33:38.827Z,102266.52
2022-12-01T10:34:40.685Z,102263.06
2022-12-01T10:35:42.566Z,102279.40
2022-12-01T10:36:44.370Z,102255.93
2022-12-01T10:37:46.293Z,102266.14
2022-12-01T10:38:49.495Z,102261.91
2022-12-01T10:39:51.696Z,102266.96
2022-12-01T10:40:53.945Z,102261.08
2022-12-01T10:41:55.765Z,102266.33
2022-12-01T10:42:57.600Z,102256.84
2022-12-01T10:43:59.432Z,102254.27
2022-12-01T10:45:01.262Z,102261.08
2022-12-01T10:46:03.086Z,102248.30
2022-12-01T10:47:04.861Z,102250.18
2022-12-01T10:48:06.660Z,102251.88
2022-12-01T10:49:08.467Z,102249.20
2022-12-01T10:50:10.658Z,102260.39
2022-12-01T10:51:12.484Z,102255.14
2022-12-01T10:52:14.282Z,102256.02
2022-12-01T10:53:16.093Z,102250.96
2022-12-01T10:54:17.914Z,102241.66
2022-12-01T10:55:19.767Z,102252.16
2022-12-01T10:56:21.574Z,102246.18
2022-12-01T10:57:23.368Z,102244.42
2022-12-01T10:58:25.182Z,102251.34
2022-12-01T10:59:26.989Z,102239.45
2022-12-01T11:00:58.957Z,102241.94
2022-12-01T11:01:32.615Z,102235.88
2022-12-01T11:02:34.744Z,102235.00
2022-12-01T11:03:36.768Z,102237.66
2022-12-01T11:04:38.823Z,102239.64
2022-12-01T11:05:40.669Z,102234.39
2022-12-01T11:06:42.586Z,102231.91
2022-12-01T11:07:44.477Z,102233.70
2022-12-01T11:08:46.295Z,102239.22
2022-12-01T11:09:48.297Z,102240.89
2022-12-01T11:10:50.388Z,102228.18
2022-12-01T11:11:52.185Z,102231.77
2022-12-01T11:12:53.992Z,102230.16
2022-12-01T11:13:55.813Z,102225.88
2022-12-01T11:14:57.619Z,102235.31
2022-12-01T11:15:59.470Z,102231.22
2022-12-01T11:17:01.417Z,102234.01
2022-12-01T11:18:03.172Z,102231.43
2022-12-01T11:19:05.058Z,102238.61
2022-12-01T11:20:08.160Z,102238.61
2022-12-01T11:21:10.386Z,102243.25
2022-12-01T11:22:12.238Z,102239.06
2022-12-01T11:23:14.060Z,102244.31
2022-12-01T11:24:15.856Z,102237.66
2022-12-01T11:25:17.666Z,102235.27
2022-12-01T11:26:19.504Z,102233.66
2022-12-01T11:27:21.323Z,102243.36
2022-12-01T11:28:23.125Z,102240.08
2022-12-01T11:29:24.929Z,102236.94
2022-12-01T11:30:26.725Z,102239.00
2022-12-01T11:31:28.644Z,102238.20
2022-12-01T11:32:30.571Z,102231.34
2022-12-01T11:33:32.406Z,102235.80
2022-12-01T11:34:35.235Z,102235.02
2022-12-01T11:35:37.046Z,102233.48
2022-12-01T11:36:38.898Z,102231.88
2022-12-01T11:37:42.011Z,102233.66
2022-12-01T11:38:44.023Z,102238.91
2022-12-01T11:39:45.848Z,102252.69
2022-12-01T11:40:47.646Z,102234.72
2022-12-01T11:41:49.498Z,102241.66
2022-12-01T11:42:51.319Z,102243.37
2022-12-01T11:44:01.086Z,102233.84
2022-12-01T11:44:56.831Z,102244.24
2022-12-01T11:45:58.718Z,102239.17